createdAt,value
2022-10-05T00:01:53.525Z,6.53
2022-10-05T00:04:29.329Z,6.53
2022-10-05T00:07:10.768Z,6.53
2022-10-05T00:09:43.549Z,6.54
2022-10-05T00:12:21.128Z,6.55
2022-10-05T00:14:56.878Z,6.55
2022-10-05T00:17:30.771Z,6.57
2022-10-05T00:20:03.256Z,6.59
2022-10-05T00:22:38.168Z,6.59
2022-10-05T00:25:16.913Z,6.61
2022-10-05T00:27:52.784Z,6.62
2022-10-05T00:30:28.459Z,6.64
2022-10-05T00:32:59.927Z,6.66
2022-10-05T00:35:32.118Z,6.62
2022-10-05T00:38:04.456Z,6.66
2022-10-05T00:40:57.071Z,6.65
2022-10-05T00:43:48.039Z,6.63
2022-10-05T00:46:25.576Z,6.64
2022-10-05T00:49:08.107Z,6.66
2022-10-05T00:51:43.156Z,6.66
2022-10-05T00:54:27.506Z,6.69
2022-10-05T00:57:09.926Z,6.71
2022-10-05T00:59:59.328Z,6.73
2022-10-05T01:02:41.828Z,6.74
2022-10-05T01:05:21.556Z,6.76
2022-10-05T01:08:00.544Z,6.81
2022-10-05T01:10:41.396Z,6.83
2022-10-05T01:13:25.789Z,6.87
2022-10-05T01:16:09.869Z,6.89
2022-10-05T01:18:49.748Z,6.92
2022-10-05T01:21:25.218Z,6.93
2022-10-05T01:24:34.661Z,6.94
2022-10-05T01:27:36.118Z,6.94
2022-10-05T01:30:13.715Z,6.93
2022-10-05T01:32:51.417Z,6.94
2022-10-05T01:35:49.753Z,6.94
2022-10-05T01:38:36.258Z,6.93
2022-10-05T01:41:22.576Z,6.90
2022-10-05T01:44:01.366Z,6.87
2022-10-05T01:46:40.039Z,6.84
2022-10-05T01:49:33.577Z,6.80
2022-10-05T01:52:20.690Z,6.73
2022-10-05T01:55:08.429Z,6.68
2022-10-05T01:57:52.098Z,6.65
2022-10-05T02:00:24.423Z,6.61
2022-10-05T02:03:05.737Z,6.57
2022-10-05T02:05:46.397Z,6.57
2022-10-05T02:08:23.918Z,6.56
2022-10-05T02:11:01.300Z,6.55
2022-10-05T02:13:40.625Z,6.53
2022-10-05T02:16:23.498Z,6.51
2022-10-05T02:18:59.927Z,6.48
2022-10-05T02:21:36.177Z,6.46
2022-10-05T02:24:14.818Z,6.44
2022-10-05T02:26:49.177Z,6.40
2022-10-05T02:29:27.861Z,6.39
2022-10-05T02:32:04.748Z,6.39
2022-10-05T02:34:40.865Z,6.39
2022-10-05T02:37:32.426Z,6.40
2022-10-05T02:40:16.122Z,6.42
2022-10-05T02:42:56.478Z,6.40
2022-10-05T02:45:42.335Z,6.36
2022-10-05T02:48:26.018Z,6.40
2022-10-05T02:51:06.388Z,6.36
2022-10-05T02:53:49.215Z,6.34
2022-10-05T02:56:31.355Z,6.35
2022-10-05T02:59:12.478Z,6.34
2022-10-05T03:01:52.540Z,6.34
2022-10-05T03:04:36.956Z,6.30
2022-10-05T03:07:18.159Z,6.29
2022-10-05T03:10:01.092Z,6.26
2022-10-05T03:12:47.749Z,6.26
2022-10-05T03:15:36.714Z,6.24
2022-10-05T03:18:21.402Z,6.22
2022-10-05T03:21:04.897Z,6.21
2022-10-05T03:23:51.338Z,6.20
2022-10-05T03:26:42.369Z,6.20
2022-10-05T03:29:28.365Z,6.20
2022-10-05T03:32:09.636Z,6.20
2022-10-05T03:34:48.047Z,6.21
2022-10-05T03:37:29.686Z,6.21
2022-10-05T03:40:10.356Z,6.22
2022-10-05T03:43:01.999Z,6.22
2022-10-05T03:45:43.768Z,6.22
2022-10-05T03:48:21.348Z,6.25
2022-10-05T03:51:03.998Z,6.26
2022-10-05T03:53:43.988Z,6.27
2022-10-05T03:56:24.091Z,6.27
2022-10-05T03:59:02.337Z,6.27
2022-10-05T04:01:41.186Z,6.26
2022-10-05T04:04:25.762Z,6.27
2022-10-05T04:07:02.486Z,6.26
2022-10-05T04:09:38.376Z,6.26
2022-10-05T04:12:18.846Z,6.29
2022-10-05T04:14:55.641Z,6.32
2022-10-05T04:17:38.088Z,6.34
2022-10-05T04:20:21.216Z,6.34
2022-10-05T04:23:00.365Z,6.35
2022-10-05T04:25:37.708Z,6.36
2022-10-05T04:28:17.793Z,6.37
2022-10-05T04:30:54.039Z,6.39
2022-10-05T04:33:28.868Z,6.40
2022-10-05T04:36:23.344Z,6.40
2022-10-05T04:39:12.639Z,6.36
2022-10-05T04:41:57.936Z,6.34
2022-10-05T04:44:58.425Z,6.35
2022-10-05T04:47:50.026Z,6.35
2022-10-05T04:50:32.900Z,6.34
2022-10-05T04:53:24.837Z,6.35
2022-10-05T04:56:24.416Z,6.36
2022-10-05T04:59:30.237Z,6.40
2022-10-05T05:02:13.638Z,6.47
2022-10-05T05:04:52.110Z,6.56
2022-10-05T05:07:40.498Z,6.55
2022-10-05T05:10:43.006Z,6.59
2022-10-05T05:13:34.916Z,6.61
2022-10-05T05:16:13.834Z,6.64
2022-10-05T05:19:17.188Z,6.67
2022-10-05T05:21:59.858Z,6.70
2022-10-05T05:24:42.498Z,6.70
2022-10-05T05:27:42.291Z,6.70
2022-10-05T05:30:23.651Z,6.74
2022-10-05T05:33:14.081Z,6.79
2022-10-05T05:36:25.924Z,6.85
2022-10-05T05:39:17.375Z,6.90
2022-10-05T05:41:59.578Z,6.98
2022-10-05T05:44:38.828Z,7.04
2022-10-05T05:47:22.011Z,7.14
2022-10-05T05:50:19.296Z,7.26
2022-10-05T05:52:55.866Z,7.51
2022-10-05T05:55:32.978Z,7.63
2022-10-05T05:58:16.838Z,7.68
2022-10-05T06:00:57.718Z,7.74
2022-10-05T06:03:37.517Z,7.81
2022-10-05T06:06:15.683Z,7.92
2022-10-05T06:08:56.446Z,8.07
2022-10-05T06:12:06.150Z,8.12
2022-10-05T06:14:43.789Z,8.17
2022-10-05T06:17:20.994Z,8.19
2022-10-05T06:20:04.700Z,8.16
2022-10-05T06:22:43.183Z,8.14
2022-10-05T06:25:30.498Z,8.17
2022-10-05T06:28:09.499Z,8.21
2022-10-05T06:30:53.479Z,8.40
2022-10-05T06:33:43.867Z,8.72
2022-10-05T06:36:41.095Z,8.99
2022-10-05T06:39:38.350Z,9.24
2022-10-05T06:42:34.991Z,9.40
2022-10-05T06:45:31.082Z,9.63
2022-10-05T06:48:19.098Z,9.69
2022-10-05T06:51:23.677Z,9.80
2022-10-05T06:54:30.208Z,9.97
2022-10-05T06:57:09.727Z,10.26
2022-10-05T06:59:50.938Z,10.54
2022-10-05T07:02:28.881Z,10.79
2022-10-05T07:05:33.080Z,11.09
2022-10-05T07:08:12.099Z,11.12
2022-10-05T07:10:58.287Z,11.03
2022-10-05T07:13:53.237Z,11.00
2022-10-05T07:16:37.020Z,11.06
2022-10-05T07:19:29.987Z,11.06
2022-10-05T07:22:28.282Z,11.12
2022-10-05T07:25:08.716Z,11.08
2022-10-05T07:27:51.096Z,11.15
2022-10-05T07:30:25.291Z,11.11
2022-10-05T07:33:10.409Z,11.22
2022-10-05T07:36:09.696Z,11.32
2022-10-05T07:38:48.267Z,11.51
2022-10-05T07:41:26.155Z,11.61
2022-10-05T07:44:12.837Z,11.79
2022-10-05T07:46:55.967Z,11.87
2022-10-05T07:49:42.102Z,12.14
2022-10-05T07:52:32.414Z,12.39
2022-10-05T07:55:17.433Z,12.57
2022-10-05T07:58:04.485Z,12.70
2022-10-05T08:00:58.667Z,12.93
2022-10-05T08:03:46.278Z,13.06
2022-10-05T08:06:36.119Z,13.16
2022-10-05T08:09:29.179Z,13.23
2022-10-05T08:12:13.837Z,13.22
2022-10-05T08:14:53.287Z,13.39
2022-10-05T08:17:35.597Z,13.58
2022-10-05T08:20:21.416Z,13.77
2022-10-05T08:22:59.099Z,13.92
2022-10-05T08:25:42.619Z,14.12
2022-10-05T08:28:22.511Z,14.46
2022-10-05T08:31:02.608Z,14.57
2022-10-05T08:33:45.236Z,14.38
2022-10-05T08:36:23.429Z,14.39
2022-10-05T08:39:01.757Z,14.30
2022-10-05T08:42:07.259Z,14.26
2022-10-05T08:45:12.336Z,14.26
2022-10-05T08:48:07.359Z,14.11
2022-10-05T08:51:19.418Z,14.12
2022-10-05T08:54:39.307Z,14.16
2022-10-05T08:57:40.879Z,14.26
2022-10-05T09:00:18.759Z,14.29
2022-10-05T09:03:14.078Z,14.33
2022-10-05T09:06:12.176Z,14.22
2022-10-05T09:09:08.719Z,14.18
2022-10-05T09:11:45.785Z,14.27
2022-10-05T09:14:56.629Z,14.30
2022-10-05T09:18:07.504Z,14.37
2022-10-05T09:20:51.061Z,14.48
2022-10-05T09:23:38.760Z,14.53
2022-10-05T09:26:45.058Z,14.54
2022-10-05T09:29:48.665Z,14.47
2022-10-05T09:32:46.558Z,14.49
2022-10-05T09:35:32.502Z,14.44
2022-10-05T09:38:15.377Z,14.43
2022-10-05T09:44:47.298Z,14.76
2022-10-05T09:47:38.528Z,14.94
2022-10-05T09:50:49.762Z,15.01
2022-10-05T09:53:50.066Z,15.11
2022-10-05T09:57:09.339Z,15.23
2022-10-05T10:00:12.719Z,15.44
2022-10-05T10:03:11.255Z,15.49
2022-10-05T10:06:03.036Z,15.48
2022-10-05T10:08:45.047Z,15.53
2022-10-05T10:11:27.898Z,15.53
2022-10-05T10:14:14.436Z,15.64
2022-10-05T10:17:02.228Z,15.73
2022-10-05T10:20:15.026Z,15.58
2022-10-05T10:23:10.187Z,15.49
2022-10-05T10:26:01.036Z,15.53
2022-10-05T10:28:53.876Z,15.37
2022-10-05T10:31:46.759Z,15.37
2022-10-05T10:34:52.907Z,15.38
2022-10-05T10:37:40.913Z,15.41
2022-10-05T10:40:36.771Z,15.56
2022-10-05T10:43:34.228Z,15.60
2022-10-05T10:46:22.274Z,15.92
2022-10-05T10:49:03.902Z,16.02
2022-10-05T10:52:07.082Z,16.22
2022-10-05T10:55:11.708Z,16.40
2022-10-05T10:58:01.276Z,16.37
2022-10-05T11:00:46.251Z,16.45
2022-10-05T11:03:49.499Z,16.55
2022-10-05T11:06:37.355Z,16.59
2022-10-05T11:09:30.647Z,16.64
2022-10-05T11:12:34.724Z,16.62
2022-10-05T11:15:24.685Z,16.67
2022-10-05T11:18:12.706Z,16.53
2022-10-05T11:21:11.723Z,16.61
2022-10-05T11:24:20.006Z,16.61
2022-10-05T11:27:11.735Z,16.61
2022-10-05T11:30:07.523Z,16.65
2022-10-05T11:33:17.888Z,16.53
2022-10-05T11:36:24.636Z,16.68
2022-10-05T11:39:39.077Z,16.70
2022-10-05T11:42:35.968Z,16.74
2022-10-05T11:45:23.927Z,16.81
2022-10-05T11:48:26.840Z,16.85
2022-10-05T11:51:29.040Z,16.98
2022-10-05T11:54:24.149Z,16.94
2022-10-05T11:57:02.116Z,16.99
2022-10-05T11:59:41.136Z,17.07
2022-10-05T12:02:43.077Z,17.04
2022-10-05T12:05:23.828Z,17.04
2022-10-05T12:08:13.553Z,16.96
2022-10-05T12:10:59.203Z,16.82
2022-10-05T12:13:40.948Z,16.84
2022-10-05T12:16:19.063Z,16.88
2022-10-05T12:18:56.939Z,16.91
2022-10-05T12:21:38.696Z,16.88
2022-10-05T12:24:23.385Z,16.88
2022-10-05T12:27:08.298Z,16.97
2022-10-05T12:29:45.808Z,16.93
2022-10-05T12:32:22.715Z,16.96
2022-10-05T12:35:02.283Z,16.94
2022-10-05T12:37:49.198Z,16.89
2022-10-05T12:40:28.346Z,16.87
2022-10-05T12:43:13.208Z,16.84
2022-10-05T12:46:00.587Z,16.95
2022-10-05T12:48:52.990Z,17.12
2022-10-05T12:51:38.154Z,17.22
2022-10-05T12:54:23.267Z,17.22
2022-10-05T12:57:01.425Z,17.24
2022-10-05T12:59:41.557Z,17.18
2022-10-05T13:02:26.180Z,17.29
2022-10-05T13:05:05.366Z,17.30
2022-10-05T13:07:50.506Z,17.20
2022-10-05T13:10:38.149Z,17.31
2022-10-05T13:13:35.777Z,17.30
2022-10-05T13:16:17.999Z,17.43
2022-10-05T13:19:07.667Z,17.49
2022-10-05T13:21:58.876Z,17.42
2022-10-05T13:24:36.468Z,17.45
2022-10-05T13:27:19.577Z,17.48
2022-10-05T13:29:59.347Z,17.37
2022-10-05T13:32:37.437Z,17.32
2022-10-05T13:35:29.770Z,17.27
2022-10-05T13:38:18.606Z,17.30
2022-10-05T13:40:59.898Z,17.31
2022-10-05T13:43:44.292Z,17.28
2022-10-05T13:46:24.205Z,17.26
2022-10-05T13:49:06.560Z,17.34
2022-10-05T13:51:47.517Z,17.31
2022-10-05T13:54:25.336Z,17.44
2022-10-05T13:57:04.832Z,17.47
2022-10-05T13:59:45.989Z,17.44
2022-10-05T14:02:22.582Z,17.42
2022-10-05T14:05:02.470Z,17.45
2022-10-05T14:07:41.069Z,17.49
2022-10-05T14:10:31.728Z,17.43
2022-10-05T14:13:10.977Z,17.43
2022-10-05T14:15:43.387Z,17.40
2022-10-05T14:18:27.663Z,17.38
2022-10-05T14:21:07.456Z,17.32
2022-10-05T14:23:40.070Z,17.32
2022-10-05T14:26:33.019Z,17.26
2022-10-05T14:29:18.346Z,17.21
2022-10-05T14:31:59.615Z,17.26
2022-10-05T14:34:37.556Z,17.26
2022-10-05T14:37:23.308Z,17.21
2022-10-05T14:39:59.206Z,17.15
2022-10-05T14:42:46.981Z,17.15
2022-10-05T14:45:23.150Z,17.07
2022-10-05T14:48:03.978Z,17.01
2022-10-05T14:50:50.520Z,16.89
2022-10-05T14:53:25.318Z,16.75
2022-10-05T14:56:18.996Z,16.76
2022-10-05T14:59:07.907Z,16.68
2022-10-05T15:01:47.148Z,16.59
2022-10-05T15:04:34.268Z,16.51
2022-10-05T15:07:21.978Z,16.42
2022-10-05T15:10:04.717Z,16.28
2022-10-05T15:12:46.997Z,16.18
2022-10-05T15:15:35.521Z,16.17
2022-10-05T15:18:16.974Z,16.19
2022-10-05T15:20:58.495Z,16.12
2022-10-05T15:23:38.276Z,16.13
2022-10-05T15:26:25.797Z,16.15
2022-10-05T15:29:08.786Z,16.11
2022-10-05T15:31:49.587Z,16.03
2022-10-05T15:34:29.868Z,16.01
2022-10-05T15:37:10.181Z,15.97
2022-10-05T15:39:50.442Z,15.92
2022-10-05T15:42:24.562Z,15.82
2022-10-05T15:45:09.121Z,15.83
2022-10-05T15:47:54.016Z,15.79
2022-10-05T15:50:30.123Z,15.71
2022-10-05T15:53:18.916Z,15.68
2022-10-05T15:55:57.789Z,15.56
2022-10-05T15:58:52.669Z,15.51
2022-10-05T16:01:41.748Z,15.45
2022-10-05T16:04:21.865Z,15.36
2022-10-05T16:07:17.180Z,15.36
2022-10-05T16:09:59.966Z,15.29
2022-10-05T16:12:52.387Z,15.24
2022-10-05T16:15:33.916Z,15.20
2022-10-05T16:18:46.329Z,15.11
2022-10-05T16:21:29.526Z,15.03
2022-10-05T16:24:15.990Z,15.00
2022-10-05T16:27:00.170Z,14.92
2022-10-05T16:29:40.531Z,14.89
2022-10-05T16:32:19.098Z,14.83
2022-10-05T16:35:04.145Z,14.78
2022-10-05T16:37:45.708Z,14.70
2022-10-05T16:40:29.416Z,14.64
2022-10-05T16:43:15.618Z,14.64
2022-10-05T16:46:02.408Z,14.62
2022-10-05T16:48:42.616Z,14.62
2022-10-05T16:51:28.516Z,14.55
2022-10-05T16:54:18.648Z,14.46
2022-10-05T16:56:56.408Z,14.42
2022-10-05T17:00:15.530Z,14.29
2022-10-05T17:03:03.386Z,14.17
2022-10-05T17:05:55.902Z,14.13
2022-10-05T17:08:45.869Z,14.06
2022-10-05T17:11:28.926Z,14.00
2022-10-05T17:14:32.526Z,13.95
2022-10-05T17:17:25.876Z,13.97
2022-10-05T17:20:24.038Z,13.98
2022-10-05T17:22:59.988Z,13.98
2022-10-05T17:25:47.860Z,13.99
2022-10-05T17:28:37.703Z,13.95
2022-10-05T17:31:27.360Z,13.95
2022-10-05T17:34:27.897Z,13.89
2022-10-05T17:37:16.912Z,13.84
2022-10-05T17:39:55.676Z,13.82
2022-10-05T17:42:49.418Z,13.85
2022-10-05T17:45:58.397Z,13.84
2022-10-05T17:49:07.596Z,13.86
2022-10-05T17:52:22.259Z,13.85
2022-10-05T17:55:32.107Z,13.86
2022-10-05T17:58:40.513Z,13.85
2022-10-05T18:01:32.001Z,13.84
2022-10-05T18:04:35.734Z,13.88
2022-10-05T18:07:21.398Z,13.87
2022-10-05T18:10:29.388Z,13.84
2022-10-05T18:13:36.150Z,13.84
2022-10-05T18:16:12.853Z,13.78
2022-10-05T18:19:05.979Z,13.78
2022-10-05T18:22:01.038Z,13.73
2022-10-05T18:24:56.982Z,13.73
2022-10-05T18:28:06.456Z,13.70
2022-10-05T18:30:59.357Z,13.65
2022-10-05T18:34:23.686Z,13.58
2022-10-05T18:37:12.008Z,13.53
2022-10-05T18:40:10.268Z,13.49
2022-10-05T18:42:56.984Z,13.50
2022-10-05T18:45:37.888Z,13.51
2022-10-05T18:48:25.975Z,13.48
2022-10-05T18:51:05.046Z,13.44
2022-10-05T18:53:43.338Z,13.40
2022-10-05T18:56:26.336Z,13.36
2022-10-05T18:59:11.470Z,13.31
2022-10-05T19:01:58.360Z,13.27
2022-10-05T19:04:40.516Z,13.23
2022-10-05T19:07:26.037Z,13.18
2022-10-05T19:10:17.946Z,13.11
2022-10-05T19:13:25.285Z,13.09
2022-10-05T19:16:12.328Z,13.04
2022-10-05T19:19:12.997Z,13.03
2022-10-05T19:21:51.499Z,13.02
2022-10-05T19:24:42.129Z,13.00
2022-10-05T19:27:27.178Z,12.99
2022-10-05T19:30:23.881Z,12.95
2022-10-05T19:33:13.287Z,12.91
2022-10-05T19:35:58.799Z,12.88
2022-10-05T19:38:38.614Z,12.85
2022-10-05T19:41:19.656Z,12.80
2022-10-05T19:44:15.396Z,12.78
2022-10-05T19:47:04.546Z,12.73
2022-10-05T19:49:50.338Z,12.67
2022-10-05T19:52:28.830Z,12.65
2022-10-05T19:55:16.600Z,12.64
2022-10-05T19:57:54.187Z,12.57
2022-10-05T20:00:31.781Z,12.54
2022-10-05T20:03:20.081Z,12.48
2022-10-05T20:05:55.278Z,12.43
2022-10-05T20:08:32.221Z,12.41
2022-10-05T20:11:14.378Z,12.39
2022-10-05T20:13:48.308Z,12.37
2022-10-05T20:16:47.690Z,12.34
2022-10-05T20:19:58.125Z,12.27
2022-10-05T20:22:34.584Z,12.21
2022-10-05T20:25:15.017Z,12.15
2022-10-05T20:27:50.063Z,12.10
2022-10-05T20:30:24.704Z,12.05
2022-10-05T20:33:01.689Z,11.99
2022-10-05T20:35:33.869Z,11.90
2022-10-05T20:38:06.339Z,11.87
2022-10-05T20:40:40.438Z,11.82
2022-10-05T20:43:12.627Z,11.78
2022-10-05T20:45:44.808Z,11.73
2022-10-05T20:48:17.747Z,11.67
2022-10-05T20:50:50.137Z,11.60
2022-10-05T20:53:22.336Z,11.57
2022-10-05T20:55:54.648Z,11.52
2022-10-05T20:58:27.303Z,11.47
2022-10-05T21:01:20.468Z,11.39
2022-10-05T21:03:53.100Z,11.34
2022-10-05T21:06:28.698Z,11.29
2022-10-05T21:09:01.760Z,11.23
2022-10-05T21:11:34.472Z,11.18
2022-10-05T21:14:08.443Z,11.14
2022-10-05T21:16:43.767Z,11.07
2022-10-05T21:19:17.352Z,11.02
2022-10-05T21:21:48.132Z,10.97
2022-10-05T21:24:22.588Z,10.88
2022-10-05T21:26:57.939Z,10.88
2022-10-05T21:29:33.369Z,10.85
2022-10-05T21:32:08.872Z,10.76
2022-10-05T21:34:41.584Z,10.70
2022-10-05T21:37:15.887Z,10.66
2022-10-05T21:39:48.312Z,10.60
2022-10-05T21:42:20.715Z,10.55
2022-10-05T21:44:52.791Z,10.48
2022-10-05T21:47:25.010Z,10.43
2022-10-05T21:49:58.513Z,10.40
2022-10-05T21:52:31.483Z,10.38
2022-10-05T21:55:23.771Z,10.34
2022-10-05T21:57:56.653Z,10.36
2022-10-05T22:00:30.628Z,10.29
2022-10-05T22:03:02.911Z,10.24
2022-10-05T22:05:35.395Z,10.24
2022-10-05T22:08:08.376Z,10.25
2022-10-05T22:10:41.001Z,10.25
2022-10-05T22:13:13.376Z,10.26
2022-10-05T22:15:45.714Z,10.29
2022-10-05T22:18:19.737Z,10.31
2022-10-05T22:20:53.483Z,10.30
2022-10-05T22:23:28.549Z,10.25
2022-10-05T22:26:02.455Z,10.20
2022-10-05T22:28:35.693Z,10.12
2022-10-05T22:31:12.132Z,10.07
2022-10-05T22:33:44.541Z,10.04
2022-10-05T22:36:18.003Z,10.00
2022-10-05T22:38:50.352Z,9.95
2022-10-05T22:41:22.892Z,9.93
2022-10-05T22:43:57.111Z,9.88
2022-10-05T22:46:29.531Z,9.87
2022-10-05T22:49:02.513Z,9.85
2022-10-05T22:51:34.802Z,9.78
2022-10-05T22:54:10.002Z,9.74
2022-10-05T22:56:42.322Z,9.71
2022-10-05T22:59:14.523Z,9.64
2022-10-05T23:01:47.061Z,9.59
2022-10-05T23:04:19.368Z,9.54
2022-10-05T23:06:51.833Z,9.49
2022-10-05T23:09:24.954Z,9.45
2022-10-05T23:11:57.522Z,9.43
2022-10-05T23:14:31.112Z,9.42
2022-10-05T23:17:02.018Z,9.38
2022-10-05T23:19:34.321Z,9.26
2022-10-05T23:22:07.434Z,9.24
2022-10-05T23:24:42.801Z,9.21
2022-10-05T23:27:15.101Z,9.22
2022-10-05T23:29:48.203Z,9.21
2022-10-05T23:32:20.534Z,9.19
2022-10-05T23:34:52.713Z,9.18
2022-10-05T23:37:27.052Z,9.15
2022-10-05T23:39:59.893Z,9.15
2022-10-05T23:42:32.013Z,9.13
2022-10-05T23:45:04.244Z,9.13
2022-10-05T23:47:37.382Z,9.13
2022-10-05T23:50:11.481Z,9.11
2022-10-05T23:52:43.874Z,9.08
2022-10-05T23:55:16.251Z,9.03
2022-10-05T23:57:48.332Z,8.99
